createdAt,value
2022-08-24T00:01:51.455Z,100.00
2022-08-24T00:16:54.202Z,91.28
2022-08-24T00:31:55.821Z,85.71
2022-08-24T00:47:03.688Z,96.49
2022-08-24T01:02:15.309Z,93.92
2022-08-24T01:17:38.788Z,100.00
2022-08-24T01:32:41.432Z,98.53
2022-08-24T01:47:42.998Z,89.91
2022-08-24T02:02:44.743Z,100.00
2022-08-24T02:17:46.258Z,98.07
2022-08-24T02:32:47.829Z,100.00
2022-08-24T02:47:49.394Z,99.59
2022-08-24T03:02:51.667Z,100.00
2022-08-24T03:17:53.363Z,100.00
2022-08-24T03:32:54.934Z,100.00
2022-08-24T03:47:56.544Z,100.00
2022-08-24T04:02:58.082Z,100.00
2022-08-24T04:17:59.689Z,100.00
2022-08-24T04:33:01.313Z,97.45
2022-08-24T04:48:02.960Z,88.11
2022-08-24T05:03:05.105Z,96.79
2022-08-24T05:18:07.528Z,83.08
2022-08-24T05:33:09.172Z,82.61
2022-08-24T05:48:10.753Z,85.36
2022-08-24T06:03:14.791Z,80.40
2022-08-24T06:18:16.461Z,80.80
2022-08-24T06:33:18.114Z,74.52
2022-08-24T06:48:19.674Z,69.94
2022-08-24T07:03:21.324Z,65.27
2022-08-24T07:18:23.185Z,63.09
2022-08-24T07:33:25.473Z,63.92
2022-08-24T07:48:28.612Z,62.51
2022-08-24T08:03:32.058Z,57.82
2022-08-24T08:18:33.703Z,55.74
2022-08-24T08:33:38.193Z,50.44
2022-08-24T08:48:39.787Z,53.87
2022-08-24T09:04:12.724Z,55.54
2022-08-24T09:19:42.316Z,49.88
2022-08-24T09:34:50.846Z,51.20
2022-08-24T09:50:10.262Z,51.52
2022-08-24T10:05:15.677Z,50.90
2022-08-24T10:20:17.254Z,48.37
2022-08-24T10:35:26.042Z,48.26
2022-08-24T10:50:40.950Z,45.14
2022-08-24T11:05:47.832Z,50.13
2022-08-24T11:20:51.182Z,50.04
2022-08-24T11:35:52.886Z,50.02
2022-08-24T11:50:54.386Z,53.58
2022-08-24T12:06:01.059Z,51.07
2022-08-24T12:21:02.724Z,57.13
2022-08-24T12:36:06.901Z,54.45
2022-08-24T12:51:34.676Z,59.99
2022-08-24T13:06:39.231Z,59.09
2022-08-24T13:21:42.831Z,63.77
2022-08-24T13:36:48.737Z,62.04
2022-08-24T13:51:55.108Z,62.72
2022-08-24T14:07:15.795Z,63.76
2022-08-24T14:22:17.409Z,60.59
2022-08-24T14:37:24.058Z,58.95
2022-08-24T14:52:35.497Z,63.28
2022-08-24T15:07:37.155Z,60.41
2022-08-24T15:22:44.271Z,65.27
2022-08-24T15:37:45.774Z,69.36
2022-08-24T15:52:55.139Z,69.28
2022-08-24T16:08:02.864Z,70.38
2022-08-24T16:23:06.667Z,72.22
2022-08-24T16:38:08.217Z,71.84
2022-08-24T16:53:10.479Z,68.68
2022-08-24T17:08:12.855Z,72.64
2022-08-24T17:23:14.832Z,76.23
2022-08-24T17:38:16.342Z,73.83
2022-08-24T17:53:19.253Z,73.11
2022-08-24T18:08:20.780Z,77.07
2022-08-24T18:23:24.708Z,75.98
2022-08-24T18:38:26.964Z,74.88
2022-08-24T18:53:28.911Z,84.92
2022-08-24T19:08:30.492Z,89.88
2022-08-24T19:23:36.160Z,93.46
2022-08-24T19:38:37.747Z,91.99
2022-08-24T19:53:39.614Z,94.44
2022-08-24T20:08:41.436Z,93.67
2022-08-24T20:23:43.631Z,94.20
2022-08-24T20:38:45.527Z,94.00
2022-08-24T20:53:47.097Z,88.68
2022-08-24T21:08:50.719Z,88.72
2022-08-24T21:23:52.283Z,97.20
2022-08-24T21:38:54.740Z,96.85
2022-08-24T21:53:59.594Z,94.88
2022-08-24T22:16:09.808Z,97.64
2022-08-24T22:31:16.139Z,99.65
2022-08-24T22:46:18.384Z,100.00
2022-08-24T23:01:21.880Z,96.43
2022-08-24T23:16:24.468Z,99.35
2022-08-24T23:31:27.288Z,98.91
2022-08-24T23:46:29.000Z,94.71
